Terminal Aerodrome Forecast
Issued by NWS

Home | Current Version | Previous Version | Text Only | Print | Product List | Glossary Off
Versions: 1 2 3 4 5 6 7 8 9 10 11 12 13 14 15 16 17 18 19 20 21 22 23 24 25 26 27 28 29 30

000
FTUS43 KABR 220900 AAD
TAFMBG
TAF AMD
KMBG 220959Z 2210/2306 30009KT 6SM -SHRA BR VCTS SCT004 BKN035CB
      OVC060
     FM221030 VRB05KT P6SM FEW006 SCT015 BKN080
     FM221400 08008KT P6SM BKN200
     FM230100 07011KT P6SM OVC050=

USA.gov is the U.S. government's official web portal to all federal, state and local government web resources and services.